sensor_id;sensor_type;location;lat;lon;timestamp;P1;durP1;ratioP1;P2;durP2;ratioP2
17494;SDS011;8864;51.970;4.614;2022-12-18T00:02:23;15.15;;;7.72;;
17494;SDS011;8864;51.970;4.614;2022-12-18T00:04:49;16.42;;;7.80;;
17494;SDS011;8864;51.970;4.614;2022-12-18T00:07:18;16.30;;;7.32;;
17494;SDS011;8864;51.970;4.614;2022-12-18T00:09:45;17.05;;;8.02;;
17494;SDS011;8864;51.970;4.614;2022-12-18T00:12:12;17.85;;;7.63;;
17494;SDS011;8864;51.970;4.614;2022-12-18T00:14:39;20.65;;;8.40;;
17494;SDS011;8864;51.970;4.614;2022-12-18T00:17:05;18.60;;;8.32;;
17494;SDS011;8864;51.970;4.614;2022-12-18T00:19:32;16.85;;;8.10;;
17494;SDS011;8864;51.970;4.614;2022-12-18T00:21:59;21.13;;;8.23;;
17494;SDS011;8864;51.970;4.614;2022-12-18T00:24:27;19.58;;;8.27;;
17494;SDS011;8864;51.970;4.614;2022-12-18T00:26:54;20.88;;;8.65;;
17494;SDS011;8864;51.970;4.614;2022-12-18T00:29:21;18.50;;;8.68;;
17494;SDS011;8864;51.970;4.614;2022-12-18T00:31:48;17.70;;;8.48;;
17494;SDS011;8864;51.970;4.614;2022-12-18T00:34:15;20.50;;;9.45;;
17494;SDS011;8864;51.970;4.614;2022-12-18T00:36:42;19.75;;;8.85;;
17494;SDS011;8864;51.970;4.614;2022-12-18T00:39:10;19.77;;;9.00;;
17494;SDS011;8864;51.970;4.614;2022-12-18T00:41:39;18.83;;;8.45;;
17494;SDS011;8864;51.970;4.614;2022-12-18T00:44:23;21.88;;;8.43;;
17494;SDS011;8864;51.970;4.614;2022-12-18T00:46:50;19.35;;;8.73;;
17494;SDS011;8864;51.970;4.614;2022-12-18T00:49:17;19.60;;;8.60;;
17494;SDS011;8864;51.970;4.614;2022-12-18T00:51:45;21.15;;;9.10;;
17494;SDS011;8864;51.970;4.614;2022-12-18T00:54:13;20.98;;;9.68;;
17494;SDS011;8864;51.970;4.614;2022-12-18T00:56:41;22.70;;;9.82;;
17494;SDS011;8864;51.970;4.614;2022-12-18T00:59:08;23.92;;;9.88;;
17494;SDS011;8864;51.970;4.614;2022-12-18T01:01:35;24.88;;;10.02;;
17494;SDS011;8864;51.970;4.614;2022-12-18T01:04:02;22.17;;;10.02;;
17494;SDS011;8864;51.970;4.614;2022-12-18T01:06:29;18.98;;;9.18;;
17494;SDS011;8864;51.970;4.614;2022-12-18T01:08:56;21.83;;;10.27;;
17494;SDS011;8864;51.970;4.614;2022-12-18T01:11:23;21.80;;;10.15;;
17494;SDS011;8864;51.970;4.614;2022-12-18T01:13:52;23.23;;;10.40;;
17494;SDS011;8864;51.970;4.614;2022-12-18T01:16:20;21.52;;;9.48;;
17494;SDS011;8864;51.970;4.614;2022-12-18T01:18:47;21.30;;;9.52;;
17494;SDS011;8864;51.970;4.614;2022-12-18T01:21:16;22.35;;;9.35;;
17494;SDS011;8864;51.970;4.614;2022-12-18T01:23:43;21.33;;;9.18;;
17494;SDS011;8864;51.970;4.614;2022-12-18T01:26:11;22.88;;;9.65;;
17494;SDS011;8864;51.970;4.614;2022-12-18T01:28:40;20.67;;;8.95;;
17494;SDS011;8864;51.970;4.614;2022-12-18T01:31:16;19.52;;;9.18;;
17494;SDS011;8864;51.970;4.614;2022-12-18T01:33:44;21.30;;;9.65;;
17494;SDS011;8864;51.970;4.614;2022-12-18T01:36:15;20.08;;;8.75;;
17494;SDS011;8864;51.970;4.614;2022-12-18T01:38:44;23.90;;;9.60;;
17494;SDS011;8864;51.970;4.614;2022-12-18T01:41:11;22.75;;;9.35;;
17494;SDS011;8864;51.970;4.614;2022-12-18T01:43:46;21.52;;;9.73;;
17494;SDS011;8864;51.970;4.614;2022-12-18T01:46:16;19.98;;;9.00;;
17494;SDS011;8864;51.970;4.614;2022-12-18T01:48:44;21.52;;;9.23;;
17494;SDS011;8864;51.970;4.614;2022-12-18T01:51:13;21.95;;;9.77;;
17494;SDS011;8864;51.970;4.614;2022-12-18T01:53:40;21.17;;;9.40;;
17494;SDS011;8864;51.970;4.614;2022-12-18T01:56:11;18.67;;;8.88;;
17494;SDS011;8864;51.970;4.614;2022-12-18T01:58:41;18.83;;;8.82;;
17494;SDS011;8864;51.970;4.614;2022-12-18T02:01:16;16.02;;;7.78;;
17494;SDS011;8864;51.970;4.614;2022-12-18T02:03:44;18.10;;;8.55;;
17494;SDS011;8864;51.970;4.614;2022-12-18T02:06:13;17.23;;;8.52;;
17494;SDS011;8864;51.970;4.614;2022-12-18T02:08:48;17.98;;;8.60;;
17494;SDS011;8864;51.970;4.614;2022-12-18T02:11:23;17.25;;;8.23;;
17494;SDS011;8864;51.970;4.614;2022-12-18T02:14:00;20.20;;;9.05;;
17494;SDS011;8864;51.970;4.614;2022-12-18T02:16:37;19.52;;;8.68;;
17494;SDS011;8864;51.970;4.614;2022-12-18T02:19:09;16.98;;;8.20;;
17494;SDS011;8864;51.970;4.614;2022-12-18T02:21:48;16.50;;;8.43;;
17494;SDS011;8864;51.970;4.614;2022-12-18T02:24:25;17.00;;;8.65;;
17494;SDS011;8864;51.970;4.614;2022-12-18T02:27:02;17.65;;;8.25;;
17494;SDS011;8864;51.970;4.614;2022-12-18T02:29:32;18.73;;;8.70;;
17494;SDS011;8864;51.970;4.614;2022-12-18T02:32:03;16.15;;;7.90;;
17494;SDS011;8864;51.970;4.614;2022-12-18T02:34:35;16.63;;;7.63;;
17494;SDS011;8864;51.970;4.614;2022-12-18T02:37:05;18.65;;;8.57;;
17494;SDS011;8864;51.970;4.614;2022-12-18T02:39:35;19.20;;;8.68;;
17494;SDS011;8864;51.970;4.614;2022-12-18T02:42:05;16.05;;;8.07;;
17494;SDS011;8864;51.970;4.614;2022-12-18T02:44:33;15.48;;;8.35;;
17494;SDS011;8864;51.970;4.614;2022-12-18T02:47:00;18.65;;;7.95;;
17494;SDS011;8864;51.970;4.614;2022-12-18T02:49:31;14.73;;;8.07;;
17494;SDS011;8864;51.970;4.614;2022-12-18T02:52:04;16.33;;;8.02;;
17494;SDS011;8864;51.970;4.614;2022-12-18T02:54:41;13.48;;;7.43;;
17494;SDS011;8864;51.970;4.614;2022-12-18T02:57:20;15.15;;;7.30;;
17494;SDS011;8864;51.970;4.614;2022-12-18T02:59:54;17.30;;;8.38;;
17494;SDS011;8864;51.970;4.614;2022-12-18T03:02:29;15.07;;;7.18;;
17494;SDS011;8864;51.970;4.614;2022-12-18T03:05:03;14.30;;;7.28;;
17494;SDS011;8864;51.970;4.614;2022-12-18T03:07:37;15.77;;;7.88;;
17494;SDS011;8864;51.970;4.614;2022-12-18T03:10:11;17.55;;;7.93;;
17494;SDS011;8864;51.970;4.614;2022-12-18T03:12:42;16.83;;;8.10;;
17494;SDS011;8864;51.970;4.614;2022-12-18T03:15:14;15.52;;;8.07;;
17494;SDS011;8864;51.970;4.614;2022-12-18T03:17:44;15.55;;;7.65;;
17494;SDS011;8864;51.970;4.614;2022-12-18T03:20:17;16.50;;;8.10;;
17494;SDS011;8864;51.970;4.614;2022-12-18T03:22:47;19.58;;;8.63;;
17494;SDS011;8864;51.970;4.614;2022-12-18T03:25:17;17.88;;;8.55;;
17494;SDS011;8864;51.970;4.614;2022-12-18T03:27:48;16.65;;;8.32;;
17494;SDS011;8864;51.970;4.614;2022-12-18T03:30:19;15.48;;;7.95;;
17494;SDS011;8864;51.970;4.614;2022-12-18T03:32:47;17.65;;;8.23;;
17494;SDS011;8864;51.970;4.614;2022-12-18T03:35:19;17.08;;;7.85;;
17494;SDS011;8864;51.970;4.614;2022-12-18T03:37:50;17.98;;;8.55;;
17494;SDS011;8864;51.970;4.614;2022-12-18T03:40:17;16.25;;;8.20;;
17494;SDS011;8864;51.970;4.614;2022-12-18T03:42:49;18.05;;;8.57;;
17494;SDS011;8864;51.970;4.614;2022-12-18T03:45:22;16.67;;;7.97;;
17494;SDS011;8864;51.970;4.614;2022-12-18T03:47:57;17.38;;;8.25;;
17494;SDS011;8864;51.970;4.614;2022-12-18T03:50:29;18.48;;;8.07;;
17494;SDS011;8864;51.970;4.614;2022-12-18T03:53:08;21.17;;;8.15;;
17494;SDS011;8864;51.970;4.614;2022-12-18T03:55:43;18.73;;;8.38;;
17494;SDS011;8864;51.970;4.614;2022-12-18T03:58:13;19.85;;;8.18;;
17494;SDS011;8864;51.970;4.614;2022-12-18T04:00:44;17.55;;;8.35;;
17494;SDS011;8864;51.970;4.614;2022-12-18T04:03:11;16.52;;;7.70;;
17494;SDS011;8864;51.970;4.614;2022-12-18T04:05:40;17.00;;;7.90;;
17494;SDS011;8864;51.970;4.614;2022-12-18T04:08:08;14.73;;;7.95;;
17494;SDS011;8864;51.970;4.614;2022-12-18T04:10:35;18.15;;;8.05;;
17494;SDS011;8864;51.970;4.614;2022-12-18T04:13:02;14.70;;;7.55;;
17494;SDS011;8864;51.970;4.614;2022-12-18T04:15:30;19.25;;;8.70;;
17494;SDS011;8864;51.970;4.614;2022-12-18T04:18:00;15.63;;;7.88;;
17494;SDS011;8864;51.970;4.614;2022-12-18T04:20:27;17.02;;;7.97;;
17494;SDS011;8864;51.970;4.614;2022-12-18T04:22:55;15.25;;;7.68;;
17494;SDS011;8864;51.970;4.614;2022-12-18T04:25:22;18.95;;;8.38;;
17494;SDS011;8864;51.970;4.614;2022-12-18T04:27:48;18.20;;;7.82;;
17494;SDS011;8864;51.970;4.614;2022-12-18T04:30:15;16.20;;;7.85;;
17494;SDS011;8864;51.970;4.614;2022-12-18T04:32:44;17.45;;;7.78;;
17494;SDS011;8864;51.970;4.614;2022-12-18T04:35:11;17.83;;;8.02;;
17494;SDS011;8864;51.970;4.614;2022-12-18T04:37:37;16.67;;;8.13;;
17494;SDS011;8864;51.970;4.614;2022-12-18T04:40:05;17.13;;;7.55;;
17494;SDS011;8864;51.970;4.614;2022-12-18T04:42:32;15.27;;;7.63;;
17494;SDS011;8864;51.970;4.614;2022-12-18T04:44:59;16.58;;;7.90;;
17494;SDS011;8864;51.970;4.614;2022-12-18T04:47:26;16.15;;;8.25;;
17494;SDS011;8864;51.970;4.614;2022-12-18T04:49:54;18.80;;;8.65;;
17494;SDS011;8864;51.970;4.614;2022-12-18T04:52:21;16.10;;;8.13;;
17494;SDS011;8864;51.970;4.614;2022-12-18T04:54:48;15.35;;;7.65;;
17494;SDS011;8864;51.970;4.614;2022-12-18T04:57:15;13.65;;;6.97;;
17494;SDS011;8864;51.970;4.614;2022-12-18T04:59:43;16.73;;;7.82;;
17494;SDS011;8864;51.970;4.614;2022-12-18T05:02:10;15.73;;;7.63;;
17494;SDS011;8864;51.970;4.614;2022-12-18T05:04:37;15.32;;;7.35;;
17494;SDS011;8864;51.970;4.614;2022-12-18T05:07:05;14.23;;;7.13;;
17494;SDS011;8864;51.970;4.614;2022-12-18T05:09:32;17.00;;;8.60;;
17494;SDS011;8864;51.970;4.614;2022-12-18T05:11:59;15.75;;;8.13;;
17494;SDS011;8864;51.970;4.614;2022-12-18T05:14:25;15.13;;;7.53;;
17494;SDS011;8864;51.970;4.614;2022-12-18T05:16:54;14.77;;;7.80;;
17494;SDS011;8864;51.970;4.614;2022-12-18T05:19:21;17.45;;;8.07;;
17494;SDS011;8864;51.970;4.614;2022-12-18T05:21:47;16.35;;;7.60;;
17494;SDS011;8864;51.970;4.614;2022-12-18T05:24:16;15.68;;;7.93;;
17494;SDS011;8864;51.970;4.614;2022-12-18T05:26:43;18.83;;;7.63;;
17494;SDS011;8864;51.970;4.614;2022-12-18T05:29:09;16.58;;;7.72;;
17494;SDS011;8864;51.970;4.614;2022-12-18T05:31:37;14.13;;;7.13;;
17494;SDS011;8864;51.970;4.614;2022-12-18T05:34:04;16.23;;;8.15;;
17494;SDS011;8864;51.970;4.614;2022-12-18T05:36:32;13.48;;;7.00;;
17494;SDS011;8864;51.970;4.614;2022-12-18T05:38:58;13.15;;;7.00;;
17494;SDS011;8864;51.970;4.614;2022-12-18T05:41:27;14.23;;;7.30;;
17494;SDS011;8864;51.970;4.614;2022-12-18T05:43:54;15.70;;;7.18;;
17494;SDS011;8864;51.970;4.614;2022-12-18T05:46:21;13.55;;;7.18;;
17494;SDS011;8864;51.970;4.614;2022-12-18T05:48:49;14.90;;;7.40;;
17494;SDS011;8864;51.970;4.614;2022-12-18T05:51:16;15.45;;;6.97;;
17494;SDS011;8864;51.970;4.614;2022-12-18T05:53:45;14.02;;;6.97;;
17494;SDS011;8864;51.970;4.614;2022-12-18T05:56:13;16.55;;;7.57;;
17494;SDS011;8864;51.970;4.614;2022-12-18T05:58:43;14.50;;;6.82;;
17494;SDS011;8864;51.970;4.614;2022-12-18T06:01:10;13.32;;;7.13;;
17494;SDS011;8864;51.970;4.614;2022-12-18T06:03:39;16.63;;;8.40;;
17494;SDS011;8864;51.970;4.614;2022-12-18T06:06:12;15.65;;;7.50;;
17494;SDS011;8864;51.970;4.614;2022-12-18T06:08:40;15.77;;;7.75;;
17494;SDS011;8864;51.970;4.614;2022-12-18T06:11:06;16.23;;;7.88;;
17494;SDS011;8864;51.970;4.614;2022-12-18T06:13:33;14.10;;;6.93;;
17494;SDS011;8864;51.970;4.614;2022-12-18T06:16:03;13.77;;;6.90;;
17494;SDS011;8864;51.970;4.614;2022-12-18T06:18:30;14.85;;;7.95;;
17494;SDS011;8864;51.970;4.614;2022-12-18T06:20:57;16.33;;;7.30;;
17494;SDS011;8864;51.970;4.614;2022-12-18T06:23:25;14.70;;;7.95;;
17494;SDS011;8864;51.970;4.614;2022-12-18T06:25:52;13.80;;;7.35;;
17494;SDS011;8864;51.970;4.614;2022-12-18T06:28:19;13.50;;;7.10;;
17494;SDS011;8864;51.970;4.614;2022-12-18T06:30:46;16.00;;;7.85;;
17494;SDS011;8864;51.970;4.614;2022-12-18T06:33:15;13.85;;;7.15;;
17494;SDS011;8864;51.970;4.614;2022-12-18T06:35:42;14.88;;;7.28;;
17494;SDS011;8864;51.970;4.614;2022-12-18T06:38:09;13.15;;;7.00;;
17494;SDS011;8864;51.970;4.614;2022-12-18T06:40:36;15.52;;;7.32;;
17494;SDS011;8864;51.970;4.614;2022-12-18T06:43:04;14.43;;;7.18;;
17494;SDS011;8864;51.970;4.614;2022-12-18T06:45:31;14.35;;;6.97;;
17494;SDS011;8864;51.970;4.614;2022-12-18T06:47:58;13.82;;;6.97;;
17494;SDS011;8864;51.970;4.614;2022-12-18T06:50:26;16.38;;;7.28;;
17494;SDS011;8864;51.970;4.614;2022-12-18T06:52:53;13.35;;;7.30;;
17494;SDS011;8864;51.970;4.614;2022-12-18T06:55:21;14.13;;;7.35;;
17494;SDS011;8864;51.970;4.614;2022-12-18T06:57:48;13.50;;;6.95;;
17494;SDS011;8864;51.970;4.614;2022-12-18T07:00:15;15.63;;;7.13;;
17494;SDS011;8864;51.970;4.614;2022-12-18T07:02:42;17.02;;;7.40;;
17494;SDS011;8864;51.970;4.614;2022-12-18T07:05:09;13.00;;;6.63;;
17494;SDS011;8864;51.970;4.614;2022-12-18T07:07:38;13.18;;;6.68;;
17494;SDS011;8864;51.970;4.614;2022-12-18T07:10:05;13.00;;;6.97;;
17494;SDS011;8864;51.970;4.614;2022-12-18T07:12:32;15.63;;;6.63;;
17494;SDS011;8864;51.970;4.614;2022-12-18T07:14:58;11.75;;;6.38;;
17494;SDS011;8864;51.970;4.614;2022-12-18T07:17:25;12.38;;;6.63;;
17494;SDS011;8864;51.970;4.614;2022-12-18T07:19:53;14.93;;;7.07;;
17494;SDS011;8864;51.970;4.614;2022-12-18T07:22:20;13.60;;;6.93;;
17494;SDS011;8864;51.970;4.614;2022-12-18T07:24:48;15.13;;;6.72;;
17494;SDS011;8864;51.970;4.614;2022-12-18T07:27:15;14.55;;;6.60;;
17494;SDS011;8864;51.970;4.614;2022-12-18T07:29:42;14.25;;;6.28;;
17494;SDS011;8864;51.970;4.614;2022-12-18T07:32:09;11.70;;;6.18;;
17494;SDS011;8864;51.970;4.614;2022-12-18T07:34:36;13.63;;;6.13;;
17494;SDS011;8864;51.970;4.614;2022-12-18T07:37:03;11.68;;;5.97;;
17494;SDS011;8864;51.970;4.614;2022-12-18T07:39:30;12.60;;;5.93;;
17494;SDS011;8864;51.970;4.614;2022-12-18T07:41:58;9.73;;;5.63;;
17494;SDS011;8864;51.970;4.614;2022-12-18T07:44:42;11.25;;;5.75;;
17494;SDS011;8864;51.970;4.614;2022-12-18T07:47:09;12.18;;;5.68;;
17494;SDS011;8864;51.970;4.614;2022-12-18T07:49:36;12.65;;;6.10;;
17494;SDS011;8864;51.970;4.614;2022-12-18T07:52:03;14.88;;;6.55;;
17494;SDS011;8864;51.970;4.614;2022-12-18T07:54:30;12.90;;;6.22;;
17494;SDS011;8864;51.970;4.614;2022-12-18T07:56:59;12.48;;;5.88;;
17494;SDS011;8864;51.970;4.614;2022-12-18T07:59:26;12.55;;;6.55;;
17494;SDS011;8864;51.970;4.614;2022-12-18T08:01:53;10.90;;;6.00;;
17494;SDS011;8864;51.970;4.614;2022-12-18T08:04:19;12.82;;;5.88;;
17494;SDS011;8864;51.970;4.614;2022-12-18T08:06:46;11.38;;;5.53;;
17494;SDS011;8864;51.970;4.614;2022-12-18T08:09:13;10.90;;;5.88;;
17494;SDS011;8864;51.970;4.614;2022-12-18T08:11:40;13.23;;;5.53;;
17494;SDS011;8864;51.970;4.614;2022-12-18T08:14:09;10.18;;;6.05;;
17494;SDS011;8864;51.970;4.614;2022-12-18T08:16:36;11.52;;;5.60;;
17494;SDS011;8864;51.970;4.614;2022-12-18T08:19:03;12.68;;;5.70;;
17494;SDS011;8864;51.970;4.614;2022-12-18T08:21:30;11.77;;;5.50;;
17494;SDS011;8864;51.970;4.614;2022-12-18T08:23:58;11.25;;;5.07;;
17494;SDS011;8864;51.970;4.614;2022-12-18T08:26:27;10.88;;;5.32;;
17494;SDS011;8864;51.970;4.614;2022-12-18T08:28:55;8.82;;;4.95;;
17494;SDS011;8864;51.970;4.614;2022-12-18T08:31:25;10.82;;;5.10;;
17494;SDS011;8864;51.970;4.614;2022-12-18T08:33:53;8.25;;;4.78;;
17494;SDS011;8864;51.970;4.614;2022-12-18T08:36:21;9.65;;;4.60;;
17494;SDS011;8864;51.970;4.614;2022-12-18T08:38:48;10.02;;;4.78;;
17494;SDS011;8864;51.970;4.614;2022-12-18T08:41:16;7.13;;;4.13;;
17494;SDS011;8864;51.970;4.614;2022-12-18T08:43:44;10.55;;;4.68;;
17494;SDS011;8864;51.970;4.614;2022-12-18T08:46:32;7.30;;;4.22;;
17494;SDS011;8864;51.970;4.614;2022-12-18T08:49:01;8.07;;;4.57;;
17494;SDS011;8864;51.970;4.614;2022-12-18T08:51:28;8.27;;;4.47;;
17494;SDS011;8864;51.970;4.614;2022-12-18T08:53:55;8.48;;;4.43;;
17494;SDS011;8864;51.970;4.614;2022-12-18T08:56:22;7.07;;;4.15;;
17494;SDS011;8864;51.970;4.614;2022-12-18T08:58:51;8.60;;;4.45;;
17494;SDS011;8864;51.970;4.614;2022-12-18T09:01:18;7.28;;;4.10;;
17494;SDS011;8864;51.970;4.614;2022-12-18T09:03:47;7.45;;;4.20;;
17494;SDS011;8864;51.970;4.614;2022-12-18T09:06:15;8.10;;;4.50;;
17494;SDS011;8864;51.970;4.614;2022-12-18T09:08:42;7.05;;;4.32;;
17494;SDS011;8864;51.970;4.614;2022-12-18T09:11:13;7.53;;;4.28;;
17494;SDS011;8864;51.970;4.614;2022-12-18T09:13:41;5.18;;;3.40;;
17494;SDS011;8864;51.970;4.614;2022-12-18T09:16:08;6.95;;;3.90;;
17494;SDS011;8864;51.970;4.614;2022-12-18T09:18:35;8.05;;;4.28;;
17494;SDS011;8864;51.970;4.614;2022-12-18T09:21:08;7.30;;;3.78;;
17494;SDS011;8864;51.970;4.614;2022-12-18T09:23:37;8.13;;;4.05;;
17494;SDS011;8864;51.970;4.614;2022-12-18T09:26:04;6.10;;;3.70;;
17494;SDS011;8864;51.970;4.614;2022-12-18T09:28:31;8.02;;;4.03;;
17494;SDS011;8864;51.970;4.614;2022-12-18T09:30:58;8.05;;;3.80;;
17494;SDS011;8864;51.970;4.614;2022-12-18T09:33:25;6.22;;;3.42;;
17494;SDS011;8864;51.970;4.614;2022-12-18T09:35:51;8.80;;;4.25;;
17494;SDS011;8864;51.970;4.614;2022-12-18T09:38:20;6.85;;;4.03;;
17494;SDS011;8864;51.970;4.614;2022-12-18T09:40:49;7.88;;;3.72;;
17494;SDS011;8864;51.970;4.614;2022-12-18T09:43:18;6.43;;;3.80;;
17494;SDS011;8864;51.970;4.614;2022-12-18T09:45:51;7.25;;;3.80;;
17494;SDS011;8864;51.970;4.614;2022-12-18T09:48:23;7.03;;;3.50;;
17494;SDS011;8864;51.970;4.614;2022-12-18T09:50:54;6.50;;;3.75;;
17494;SDS011;8864;51.970;4.614;2022-12-18T09:53:26;12.02;;;4.35;;
17494;SDS011;8864;51.970;4.614;2022-12-18T09:55:58;13.00;;;4.43;;
17494;SDS011;8864;51.970;4.614;2022-12-18T09:58:28;12.32;;;4.63;;
17494;SDS011;8864;51.970;4.614;2022-12-18T10:01:01;21.30;;;5.00;;
17494;SDS011;8864;51.970;4.614;2022-12-18T10:03:28;16.85;;;5.43;;
17494;SDS011;8864;51.970;4.614;2022-12-18T10:05:57;16.20;;;4.80;;
17494;SDS011;8864;51.970;4.614;2022-12-18T10:08:36;15.20;;;4.65;;
17494;SDS011;8864;51.970;4.614;2022-12-18T10:11:17;15.82;;;5.05;;
17494;SDS011;8864;51.970;4.614;2022-12-18T10:14:05;14.23;;;4.60;;
17494;SDS011;8864;51.970;4.614;2022-12-18T10:16:36;11.48;;;4.95;;
17494;SDS011;8864;51.970;4.614;2022-12-18T10:19:16;16.20;;;5.38;;
17494;SDS011;8864;51.970;4.614;2022-12-18T10:21:51;13.90;;;4.57;;
17494;SDS011;8864;51.970;4.614;2022-12-18T10:24:28;18.10;;;5.20;;
17494;SDS011;8864;51.970;4.614;2022-12-18T10:27:04;23.45;;;5.82;;
17494;SDS011;8864;51.970;4.614;2022-12-18T10:29:40;22.55;;;6.05;;
17494;SDS011;8864;51.970;4.614;2022-12-18T10:32:09;19.13;;;5.82;;
17494;SDS011;8864;51.970;4.614;2022-12-18T10:34:44;17.67;;;5.60;;
17494;SDS011;8864;51.970;4.614;2022-12-18T10:37:14;16.88;;;5.22;;
17494;SDS011;8864;51.970;4.614;2022-12-18T10:39:45;21.27;;;5.43;;
17494;SDS011;8864;51.970;4.614;2022-12-18T10:42:16;17.58;;;5.53;;
17494;SDS011;8864;51.970;4.614;2022-12-18T10:44:45;21.33;;;5.88;;
17494;SDS011;8864;51.970;4.614;2022-12-18T10:47:12;25.13;;;5.68;;
17494;SDS011;8864;51.970;4.614;2022-12-18T10:49:47;18.00;;;5.63;;
17494;SDS011;8864;51.970;4.614;2022-12-18T10:52:17;16.35;;;5.25;;
17494;SDS011;8864;51.970;4.614;2022-12-18T10:54:49;14.55;;;5.28;;
17494;SDS011;8864;51.970;4.614;2022-12-18T10:57:33;14.63;;;5.05;;
17494;SDS011;8864;51.970;4.614;2022-12-18T11:00:19;18.00;;;4.90;;
17494;SDS011;8864;51.970;4.614;2022-12-18T11:02:49;18.02;;;5.93;;
17494;SDS011;8864;51.970;4.614;2022-12-18T11:05:27;19.70;;;5.22;;
17494;SDS011;8864;51.970;4.614;2022-12-18T11:07:56;12.63;;;4.60;;
17494;SDS011;8864;51.970;4.614;2022-12-18T11:10:28;14.30;;;4.35;;
17494;SDS011;8864;51.970;4.614;2022-12-18T11:13:08;14.98;;;4.68;;
17494;SDS011;8864;51.970;4.614;2022-12-18T11:15:36;12.48;;;4.28;;
17494;SDS011;8864;51.970;4.614;2022-12-18T11:18:13;16.58;;;4.90;;
17494;SDS011;8864;51.970;4.614;2022-12-18T11:20:50;16.02;;;5.05;;
17494;SDS011;8864;51.970;4.614;2022-12-18T11:23:18;12.73;;;4.78;;
17494;SDS011;8864;51.970;4.614;2022-12-18T11:25:54;10.50;;;3.97;;
17494;SDS011;8864;51.970;4.614;2022-12-18T11:28:35;9.85;;;4.25;;
17494;SDS011;8864;51.970;4.614;2022-12-18T11:31:16;12.70;;;4.60;;
17494;SDS011;8864;51.970;4.614;2022-12-18T11:33:46;14.57;;;4.07;;
17494;SDS011;8864;51.970;4.614;2022-12-18T11:36:19;11.40;;;4.22;;
17494;SDS011;8864;51.970;4.614;2022-12-18T11:38:47;10.43;;;3.83;;
17494;SDS011;8864;51.970;4.614;2022-12-18T11:41:21;11.90;;;3.92;;
17494;SDS011;8864;51.970;4.614;2022-12-18T11:44:14;11.57;;;4.38;;
17494;SDS011;8864;51.970;4.614;2022-12-18T11:46:49;9.32;;;3.85;;
17494;SDS011;8864;51.970;4.614;2022-12-18T11:49:22;7.90;;;3.33;;
17494;SDS011;8864;51.970;4.614;2022-12-18T11:51:58;12.18;;;4.00;;
17494;SDS011;8864;51.970;4.614;2022-12-18T11:54:29;11.07;;;4.05;;
17494;SDS011;8864;51.970;4.614;2022-12-18T11:56:58;8.75;;;3.95;;
17494;SDS011;8864;51.970;4.614;2022-12-18T11:59:34;8.13;;;3.45;;
17494;SDS011;8864;51.970;4.614;2022-12-18T12:02:15;7.82;;;3.58;;
17494;SDS011;8864;51.970;4.614;2022-12-18T12:05:01;9.13;;;3.70;;
17494;SDS011;8864;51.970;4.614;2022-12-18T12:07:39;7.65;;;3.53;;
17494;SDS011;8864;51.970;4.614;2022-12-18T12:10:14;8.63;;;3.72;;
17494;SDS011;8864;51.970;4.614;2022-12-18T12:12:58;5.22;;;2.88;;
17494;SDS011;8864;51.970;4.614;2022-12-18T12:15:38;9.48;;;3.65;;
17494;SDS011;8864;51.970;4.614;2022-12-18T12:18:17;7.35;;;3.28;;
17494;SDS011;8864;51.970;4.614;2022-12-18T12:20:53;7.25;;;3.55;;
17494;SDS011;8864;51.970;4.614;2022-12-18T12:23:32;8.70;;;3.92;;
17494;SDS011;8864;51.970;4.614;2022-12-18T12:26:06;8.10;;;3.40;;
17494;SDS011;8864;51.970;4.614;2022-12-18T12:28:47;6.55;;;3.25;;
17494;SDS011;8864;51.970;4.614;2022-12-18T12:31:30;6.80;;;3.03;;
17494;SDS011;8864;51.970;4.614;2022-12-18T12:34:09;11.35;;;3.58;;
17494;SDS011;8864;51.970;4.614;2022-12-18T12:36:47;9.63;;;3.28;;
17494;SDS011;8864;51.970;4.614;2022-12-18T12:39:22;7.63;;;3.28;;
17494;SDS011;8864;51.970;4.614;2022-12-18T12:41:54;7.22;;;3.35;;
17494;SDS011;8864;51.970;4.614;2022-12-18T12:44:41;10.18;;;4.03;;
17494;SDS011;8864;51.970;4.614;2022-12-18T12:47:13;6.90;;;3.30;;
17494;SDS011;8864;51.970;4.614;2022-12-18T12:49:45;6.35;;;3.25;;
17494;SDS011;8864;51.970;4.614;2022-12-18T12:52:14;7.63;;;3.20;;
17494;SDS011;8864;51.970;4.614;2022-12-18T12:54:48;5.65;;;3.08;;
17494;SDS011;8864;51.970;4.614;2022-12-18T12:57:17;8.10;;;3.53;;
17494;SDS011;8864;51.970;4.614;2022-12-18T12:59:51;6.60;;;2.83;;
17494;SDS011;8864;51.970;4.614;2022-12-18T13:02:28;7.10;;;3.30;;
17494;SDS011;8864;51.970;4.614;2022-12-18T13:05:01;5.32;;;3.25;;
17494;SDS011;8864;51.970;4.614;2022-12-18T13:07:37;5.88;;;3.08;;
17494;SDS011;8864;51.970;4.614;2022-12-18T13:10:12;7.18;;;3.20;;
17494;SDS011;8864;51.970;4.614;2022-12-18T13:12:51;7.78;;;3.50;;
17494;SDS011;8864;51.970;4.614;2022-12-18T13:15:23;6.38;;;2.95;;
17494;SDS011;8864;51.970;4.614;2022-12-18T13:20:41;7.07;;;3.30;;
17494;SDS011;8864;51.970;4.614;2022-12-18T13:23:19;9.10;;;3.17;;
17494;SDS011;8864;51.970;4.614;2022-12-18T13:25:54;8.13;;;2.95;;
17494;SDS011;8864;51.970;4.614;2022-12-18T13:28:22;6.90;;;3.33;;
17494;SDS011;8864;51.970;4.614;2022-12-18T13:31:13;7.05;;;3.35;;
17494;SDS011;8864;51.970;4.614;2022-12-18T13:33:41;8.30;;;3.40;;
17494;SDS011;8864;51.970;4.614;2022-12-18T13:36:12;6.55;;;3.05;;
17494;SDS011;8864;51.970;4.614;2022-12-18T13:45:41;6.35;;;3.13;;
17494;SDS011;8864;51.970;4.614;2022-12-18T13:48:19;5.75;;;3.22;;
17494;SDS011;8864;51.970;4.614;2022-12-18T13:50:57;5.55;;;3.05;;
17494;SDS011;8864;51.970;4.614;2022-12-18T13:53:27;5.63;;;3.10;;
17494;SDS011;8864;51.970;4.614;2022-12-18T13:55:58;6.80;;;3.58;;
17494;SDS011;8864;51.970;4.614;2022-12-18T13:58:25;6.25;;;3.20;;
17494;SDS011;8864;51.970;4.614;2022-12-18T14:00:52;5.57;;;3.10;;
17494;SDS011;8864;51.970;4.614;2022-12-18T14:03:22;5.07;;;2.72;;
17494;SDS011;8864;51.970;4.614;2022-12-18T14:05:52;4.85;;;2.70;;
17494;SDS011;8864;51.970;4.614;2022-12-18T14:08:22;6.97;;;3.15;;
17494;SDS011;8864;51.970;4.614;2022-12-18T14:10:52;8.98;;;3.50;;
17494;SDS011;8864;51.970;4.614;2022-12-18T14:13:21;6.05;;;3.00;;
17494;SDS011;8864;51.970;4.614;2022-12-18T14:15:50;8.32;;;3.58;;
17494;SDS011;8864;51.970;4.614;2022-12-18T14:18:23;6.45;;;3.00;;
17494;SDS011;8864;51.970;4.614;2022-12-18T14:20:53;6.03;;;3.15;;
17494;SDS011;8864;51.970;4.614;2022-12-18T14:23:30;6.00;;;3.15;;
17494;SDS011;8864;51.970;4.614;2022-12-18T14:25:59;8.50;;;3.13;;
17494;SDS011;8864;51.970;4.614;2022-12-18T14:28:26;5.78;;;3.20;;
17494;SDS011;8864;51.970;4.614;2022-12-18T14:30:53;7.60;;;3.55;;
17494;SDS011;8864;51.970;4.614;2022-12-18T14:33:23;7.60;;;3.38;;
17494;SDS011;8864;51.970;4.614;2022-12-18T14:35:56;7.10;;;3.50;;
17494;SDS011;8864;51.970;4.614;2022-12-18T14:38:26;7.00;;;3.45;;
17494;SDS011;8864;51.970;4.614;2022-12-18T14:40:56;5.70;;;3.22;;
17494;SDS011;8864;51.970;4.614;2022-12-18T14:43:24;6.53;;;3.13;;
17494;SDS011;8864;51.970;4.614;2022-12-18T14:45:52;6.35;;;3.45;;
17494;SDS011;8864;51.970;4.614;2022-12-18T14:48:20;6.53;;;3.53;;
17494;SDS011;8864;51.970;4.614;2022-12-18T14:50:59;6.00;;;3.63;;
17494;SDS011;8864;51.970;4.614;2022-12-18T14:53:34;7.00;;;3.58;;
17494;SDS011;8864;51.970;4.614;2022-12-18T14:56:10;5.40;;;2.83;;
17494;SDS011;8864;51.970;4.614;2022-12-18T14:58:44;5.43;;;3.10;;
17494;SDS011;8864;51.970;4.614;2022-12-18T15:01:19;7.20;;;3.55;;
17494;SDS011;8864;51.970;4.614;2022-12-18T15:03:50;5.90;;;3.95;;
17494;SDS011;8864;51.970;4.614;2022-12-18T15:06:21;8.95;;;3.70;;
17494;SDS011;8864;51.970;4.614;2022-12-18T15:08:55;6.10;;;3.65;;
17494;SDS011;8864;51.970;4.614;2022-12-18T15:11:26;6.13;;;3.28;;
17494;SDS011;8864;51.970;4.614;2022-12-18T15:13:54;6.43;;;3.53;;
17494;SDS011;8864;51.970;4.614;2022-12-18T15:16:24;5.13;;;3.30;;
17494;SDS011;8864;51.970;4.614;2022-12-18T15:18:52;8.23;;;3.45;;
17494;SDS011;8864;51.970;4.614;2022-12-18T15:21:19;7.47;;;3.40;;